Time;durP1;ratioP1;P1;durP2;ratioP2;P2;SDS_P1;SDS_P2;PMS_P1;PMS_P2;Temp;Humidity;BMP_temperature;BMP_pressure;BME280_temperature;BME280_humidity;BME280_pressure;Samples;Min_cycle;Max_cycle;Signal;HPM_P1;HPM_P2
2021/08/12 00:01:38;;;;;;;17.13;9.48;;;;;;;;;;4963873;28;20042;-54
2021/08/12 00:04:04;;;;;;;8.68;3.58;;;;;;;;;;4963988;28;20025;-54
2021/08/12 00:06:30;;;;;;;7.13;3.30;;;;;;;;;;4963890;28;20061;-52
2021/08/12 00:08:56;;;;;;;25.48;15.30;;;;;;;;;;4969080;28;20367;-55
2021/08/12 00:11:22;;;;;;;31.77;15.50;;;;;;;;;;4971264;28;20041;-54
2021/08/12 00:13:48;;;;;;;13.27;6.35;;;;;;;;;;4970082;28;20037;-54
2021/08/12 00:16:14;;;;;;;21.88;12.45;;;;;;;;;;4970191;28;20034;-52
2021/08/12 00:18:42;;;;;;;11.07;4.63;;;;;;;;;;4970013;28;20096;-50
2021/08/12 00:21:08;;;;;;;12.85;3.58;;;;;;;;;;4970150;28;20033;-52
2021/08/12 00:23:34;;;;;;;11.15;3.53;;;;;;;;;;4967401;28;20057;-53
2021/08/12 00:26:00;;;;;;;3.67;2.67;;;;;;;;;;4970064;28;20475;-51
2021/08/12 00:28:27;;;;;;;5.97;2.80;;;;;;;;;;4969872;28;20681;-50
2021/08/12 00:30:53;;;;;;;4.22;2.70;;;;;;;;;;4971546;28;20190;-54
2021/08/12 00:33:19;;;;;;;4.55;3.25;;;;;;;;;;4980891;28;20034;-53
2021/08/12 00:35:45;;;;;;;10.10;3.10;;;;;;;;;;4980853;28;20110;-53
2021/08/12 00:38:13;;;;;;;7.82;2.80;;;;;;;;;;4980534;28;20486;-55
2021/08/12 00:40:40;;;;;;;9.05;3.17;;;;;;;;;;4980791;28;20026;-54
2021/08/12 00:43:06;;;;;;;3.83;2.75;;;;;;;;;;4980737;28;20070;-53
2021/08/12 00:45:32;;;;;;;9.77;3.47;;;;;;;;;;4980670;28;20384;-53
2021/08/12 00:47:58;;;;;;;6.38;2.70;;;;;;;;;;4980715;28;20027;-53
2021/08/12 00:50:25;;;;;;;8.30;2.85;;;;;;;;;;4980992;28;20526;-53
2021/08/12 00:52:51;;;;;;;5.38;2.88;;;;;;;;;;4980647;28;20106;-52
2021/08/12 00:55:17;;;;;;;9.63;3.05;;;;;;;;;;4980491;28;20019;-55
2021/08/12 00:57:43;;;;;;;11.15;3.28;;;;;;;;;;4980570;28;20467;-54
2021/08/12 01:00:10;;;;;;;13.27;3.05;;;;;;;;;;4980658;28;20061;-53
2021/08/12 01:02:37;;;;;;;9.02;2.97;;;;;;;;;;4980651;28;20395;-53
2021/08/12 01:05:04;;;;;;;9.20;3.42;;;;;;;;;;4980612;28;20050;-52
2021/08/12 01:07:39;;;;;;;6.72;3.15;;;;;;;;;;4980467;28;20089;-52
2021/08/12 01:10:05;;;;;;;9.43;3.00;;;;;;;;;;4980305;28;20134;-54
2021/08/12 01:12:40;;;;;;;6.60;3.47;;;;;;;;;;4980622;28;20469;-53
2021/08/12 01:15:11;;;;;;;4.53;2.63;;;;;;;;;;4980450;28;20055;-52
2021/08/12 01:17:41;;;;;;;8.32;3.10;;;;;;;;;;4980416;28;20043;-52
2021/08/12 01:20:07;;;;;;;6.68;3.08;;;;;;;;;;4977436;28;20061;-53
2021/08/12 01:22:35;;;;;;;5.78;3.28;;;;;;;;;;4977216;28;20031;-53
2021/08/12 01:25:04;;;;;;;7.25;3.13;;;;;;;;;;4975903;28;20047;-52
2021/08/12 01:27:31;;;;;;;7.25;3.10;;;;;;;;;;4976118;28;20443;-52
2021/08/12 01:30:12;;;;;;;8.60;2.92;;;;;;;;;;4977379;28;20073;-53
2021/08/12 01:32:44;;;;;;;6.22;2.83;;;;;;;;;;4977140;28;20034;-54
2021/08/12 01:35:12;;;;;;;10.32;3.28;;;;;;;;;;4976987;28;20015;-55
2021/08/12 01:38:04;;;;;;;5.82;3.10;;;;;;;;;;4977319;28;20073;-52
2021/08/12 01:40:34;;;;;;;4.05;2.90;;;;;;;;;;4976699;28;20047;-53
2021/08/12 01:43:01;;;;;;;7.90;2.65;;;;;;;;;;4976924;28;20114;-52
2021/08/12 01:45:29;;;;;;;4.85;2.80;;;;;;;;;;4976919;28;20073;-53
2021/08/12 01:47:56;;;;;;;7.07;3.10;;;;;;;;;;4977023;28;20030;-53
2021/08/12 01:50:22;;;;;;;7.28;3.35;;;;;;;;;;4976680;28;20023;-53
2021/08/12 01:52:50;;;;;;;6.45;3.08;;;;;;;;;;4977015;28;20106;-54
2021/08/12 01:55:21;;;;;;;10.13;3.60;;;;;;;;;;4976742;28;20153;-52
2021/08/12 01:57:49;;;;;;;;;;;;;;;;;;4976977;28;20146;-52
2021/08/12 02:00:15;;;;;;;4.30;3.13;;;;;;;;;;4976554;28;19937;-54
2021/08/12 02:02:43;;;;;;;6.38;3.47;;;;;;;;;;4976936;28;20035;-54
2021/08/12 02:05:14;;;;;;;9.68;3.22;;;;;;;;;;4976382;28;20538;-53
2021/08/12 02:07:44;;;;;;;5.00;3.05;;;;;;;;;;4976671;28;20030;-54
2021/08/12 02:10:13;;;;;;;6.50;3.38;;;;;;;;;;4976301;28;20277;-55
2021/08/12 02:12:40;;;;;;;5.35;2.92;;;;;;;;;;4976456;28;20038;-53
2021/08/12 02:15:09;;;;;;;10.07;2.88;;;;;;;;;;4976404;28;20038;-53
2021/08/12 02:17:35;;;;;;;7.38;3.30;;;;;;;;;;4976338;28;20038;-53
2021/08/12 02:20:02;;;;;;;8.43;3.28;;;;;;;;;;4976136;28;20041;-52
2021/08/12 02:22:30;;;;;;;6.57;3.85;;;;;;;;;;4976328;28;20479;-53
2021/08/12 02:24:57;;;;;;;9.75;3.47;;;;;;;;;;4976402;28;20070;-52
2021/08/12 02:27:23;;;;;;;8.05;3.83;;;;;;;;;;4976343;28;20027;-52
2021/08/12 02:29:51;;;;;;;7.25;3.55;;;;;;;;;;4976011;28;20023;-53
2021/08/12 02:32:17;;;;;;;6.65;3.50;;;;;;;;;;4975031;28;20485;-55
2021/08/12 02:34:43;;;;;;;5.53;3.40;;;;;;;;;;4976151;28;20026;-57
2021/08/12 02:37:12;;;;;;;6.47;3.60;;;;;;;;;;4976028;28;20034;-56
2021/08/12 02:39:42;;;;;;;8.48;3.72;;;;;;;;;;4976375;28;20037;-54
2021/08/12 02:42:09;;;;;;;6.05;3.50;;;;;;;;;;4976120;28;20023;-54
2021/08/12 02:44:36;;;;;;;5.15;3.40;;;;;;;;;;4975936;28;20122;-53
2021/08/12 02:47:07;;;;;;;7.78;3.58;;;;;;;;;;4976103;28;20035;-52
2021/08/12 02:49:35;;;;;;;6.78;3.65;;;;;;;;;;4975920;28;20027;-53
2021/08/12 02:52:02;;;;;;;6.95;3.50;;;;;;;;;;4975987;28;20101;-55
2021/08/12 02:54:29;;;;;;;5.75;3.40;;;;;;;;;;4975868;28;20027;-53
2021/08/12 02:56:58;;;;;;;9.90;3.75;;;;;;;;;;4975600;28;20027;-53
2021/08/12 02:59:24;;;;;;;10.35;3.33;;;;;;;;;;4975635;28;20027;-53
2021/08/12 03:01:52;;;;;;;5.22;3.17;;;;;;;;;;4975616;28;20026;-53
2021/08/12 03:04:21;;;;;;;5.65;3.60;;;;;;;;;;4975383;28;20388;-53
2021/08/12 03:06:49;;;;;;;8.77;3.65;;;;;;;;;;4975336;28;20542;-53
2021/08/12 03:09:16;;;;;;;9.73;3.50;;;;;;;;;;4975159;28;20050;-52
2021/08/12 03:11:42;;;;;;;7.05;3.95;;;;;;;;;;4975241;28;20032;-53
2021/08/12 03:14:08;;;;;;;12.05;4.15;;;;;;;;;;4975323;28;20034;-53
2021/08/12 03:16:35;;;;;;;5.38;3.60;;;;;;;;;;4973932;28;20391;-54
2021/08/12 03:19:03;;;;;;;8.65;3.95;;;;;;;;;;4975183;28;20034;-54
2021/08/12 03:21:29;;;;;;;6.95;3.53;;;;;;;;;;4975009;28;20030;-53
2021/08/12 03:24:01;;;;;;;6.05;3.53;;;;;;;;;;4975090;28;20034;-52
2021/08/12 03:26:27;;;;;;;7.88;3.63;;;;;;;;;;4974978;28;20139;-52
2021/08/12 03:28:53;;;;;;;11.23;3.70;;;;;;;;;;4975062;28;20506;-52
2021/08/12 03:31:19;;;;;;;10.43;3.75;;;;;;;;;;4975165;28;20035;-53
2021/08/12 03:33:47;;;;;;;4.75;3.17;;;;;;;;;;4975243;28;20023;-53
2021/08/12 03:36:14;;;;;;;6.85;3.67;;;;;;;;;;4974868;28;20528;-53
2021/08/12 03:38:40;;;;;;;5.80;3.70;;;;;;;;;;4974672;28;20055;-53
2021/08/12 03:41:06;;;;;;;8.57;3.10;;;;;;;;;;4974585;28;20026;-53
2021/08/12 03:43:32;;;;;;;8.00;3.40;;;;;;;;;;4974415;28;20025;-53
2021/08/12 03:45:58;;;;;;;5.10;3.13;;;;;;;;;;4974705;28;20023;-54
2021/08/12 03:48:24;;;;;;;5.85;3.45;;;;;;;;;;4974705;28;20415;-52
2021/08/12 03:50:50;;;;;;;6.22;3.47;;;;;;;;;;4974686;28;20027;-52
2021/08/12 03:53:17;;;;;;;6.43;3.45;;;;;;;;;;4974828;28;20508;-53
2021/08/12 03:55:43;;;;;;;10.52;3.72;;;;;;;;;;4974658;28;20077;-53
2021/08/12 03:58:09;;;;;;;10.98;3.75;;;;;;;;;;4974641;28;20498;-55
2021/08/12 04:00:35;;;;;;;6.10;4.07;;;;;;;;;;4974732;28;20161;-53
2021/08/12 04:03:01;;;;;;;9.35;3.72;;;;;;;;;;4974882;28;20035;-52
2021/08/12 04:05:31;;;;;;;11.07;4.15;;;;;;;;;;4974466;28;20062;-52
2021/08/12 04:07:57;;;;;;;8.57;3.63;;;;;;;;;;4974572;28;20023;-53
2021/08/12 04:10:23;;;;;;;6.68;4.10;;;;;;;;;;4974216;28;20054;-52
2021/08/12 04:12:49;;;;;;;6.63;4.05;;;;;;;;;;4974388;28;20074;-52
2021/08/12 04:15:15;;;;;;;9.38;4.30;;;;;;;;;;4974844;28;20019;-52
2021/08/12 04:17:46;;;;;;;8.07;3.83;;;;;;;;;;4974345;28;20022;-53
2021/08/12 04:20:12;;;;;;;9.77;4.05;;;;;;;;;;4974375;28;20114;-52
2021/08/12 04:22:38;;;;;;;11.45;3.88;;;;;;;;;;4974491;28;20074;-51
2021/08/12 04:25:04;;;;;;;6.97;3.85;;;;;;;;;;4974461;28;20034;-53
2021/08/12 04:27:30;;;;;;;8.40;3.70;;;;;;;;;;4974531;28;20089;-53
2021/08/12 04:29:56;;;;;;;8.32;4.30;;;;;;;;;;4974279;28;20483;-53
2021/08/12 04:32:22;;;;;;;5.53;3.42;;;;;;;;;;4973449;28;20031;-52
2021/08/12 04:34:48;;;;;;;6.32;3.97;;;;;;;;;;4974482;28;20034;-53
2021/08/12 04:37:15;;;;;;;12.95;3.72;;;;;;;;;;4974328;28;20063;-51
2021/08/12 04:39:41;;;;;;;8.80;4.03;;;;;;;;;;4974303;28;20089;-52
2021/08/12 04:42:07;;;;;;;8.55;4.18;;;;;;;;;;4974226;28;20451;-52
2021/08/12 04:44:33;;;;;;;7.40;4.57;;;;;;;;;;4974333;28;20073;-53
2021/08/12 04:46:59;;;;;;;5.90;3.90;;;;;;;;;;4974237;28;20027;-52
2021/08/12 04:49:25;;;;;;;4.40;3.72;;;;;;;;;;4974252;28;20372;-52
2021/08/12 04:51:51;;;;;;;8.73;3.67;;;;;;;;;;4974048;28;20026;-53
2021/08/12 04:54:17;;;;;;;7.25;3.90;;;;;;;;;;4974594;28;20479;-53
2021/08/12 04:56:43;;;;;;;9.23;5.18;;;;;;;;;;4977626;28;20018;-57
2021/08/12 04:59:09;;;;;;;9.93;5.85;;;;;;;;;;4977723;28;20089;-52
2021/08/12 05:01:35;;;;;;;11.43;5.05;;;;;;;;;;4977606;28;20029;-54
2021/08/12 05:04:04;;;;;;;8.98;4.85;;;;;;;;;;4989842;28;20031;-53
2021/08/12 05:06:30;;;;;;;9.18;4.40;;;;;;;;;;4996358;28;20046;-53
2021/08/12 05:08:56;;;;;;;7.68;3.95;;;;;;;;;;4996177;28;20537;-53
2021/08/12 05:11:22;;;;;;;11.63;4.70;;;;;;;;;;4996227;28;20042;-53
2021/08/12 05:13:50;;;;;;;14.30;6.78;;;;;;;;;;4996206;28;20022;-53
2021/08/12 05:16:16;;;;;;;11.75;5.90;;;;;;;;;;4996361;28;20030;-54
2021/08/12 05:18:42;;;;;;;13.05;8.75;;;;;;;;;;4996391;28;20030;-54
2021/08/12 05:21:08;;;;;;;16.13;10.15;;;;;;;;;;4996770;28;20352;-54
2021/08/12 05:23:36;;;;;;;15.43;10.13;;;;;;;;;;4996672;28;20467;-54
2021/08/12 05:26:04;;;;;;;10.75;6.72;;;;;;;;;;4996456;28;20034;-54
2021/08/12 05:28:33;;;;;;;7.85;5.07;;;;;;;;;;4996602;28;20061;-55
2021/08/12 05:31:01;;;;;;;8.68;5.18;;;;;;;;;;4996542;28;20029;-52
2021/08/12 05:33:27;;;;;;;6.13;4.30;;;;;;;;;;4996451;28;20106;-53
2021/08/12 05:35:53;;;;;;;4.13;3.72;;;;;;;;;;4996251;28;20030;-53
2021/08/12 05:38:19;;;;;;;5.93;3.35;;;;;;;;;;4996154;28;20057;-53
2021/08/12 05:40:45;;;;;;;6.78;4.00;;;;;;;;;;4996285;28;20438;-54
2021/08/12 05:43:12;;;;;;;7.72;4.50;;;;;;;;;;4996274;28;20045;-52
2021/08/12 05:45:38;;;;;;;7.10;3.58;;;;;;;;;;4996335;28;20022;-53
2021/08/12 05:48:04;;;;;;;18.80;5.65;;;;;;;;;;4996241;28;20149;-51
2021/08/12 05:50:30;;;;;;;5.63;4.20;;;;;;;;;;4996065;28;20080;-51
2021/08/12 05:52:56;;;;;;;6.13;3.90;;;;;;;;;;4996036;28;20026;-51
2021/08/12 05:55:22;;;;;;;8.98;4.20;;;;;;;;;;4995945;28;20019;-52
2021/08/12 05:57:48;;;;;;;10.00;4.20;;;;;;;;;;4995957;28;20479;-51
2021/08/12 06:00:14;;;;;;;48.15;21.58;;;;;;;;;;4996307;28;20033;-51
2021/08/12 06:02:40;;;;;;;20.75;12.05;;;;;;;;;;4995881;28;20053;-51
2021/08/12 06:05:07;;;;;;;10.60;6.78;;;;;;;;;;4995581;28;20479;-51
2021/08/12 06:07:33;;;;;;;6.57;4.43;;;;;;;;;;4995740;28;20533;-52
2021/08/12 06:10:04;;;;;;;7.72;4.05;;;;;;;;;;4995558;28;20042;-52
2021/08/12 06:12:30;;;;;;;7.78;3.70;;;;;;;;;;4995677;28;20026;-51
2021/08/12 06:14:56;;;;;;;28.60;21.75;;;;;;;;;;4995742;28;20061;-50
2021/08/12 06:17:22;;;;;;;36.83;21.35;;;;;;;;;;4995605;28;20050;-51
2021/08/12 06:19:48;;;;;;;21.67;11.40;;;;;;;;;;4995565;28;20026;-52
2021/08/12 06:22:14;;;;;;;19.90;13.02;;;;;;;;;;4995460;28;20061;-51
2021/08/12 06:24:40;;;;;;;25.38;14.55;;;;;;;;;;4995780;28;20105;-51
2021/08/12 06:27:06;;;;;;;24.83;12.43;;;;;;;;;;4995565;28;20022;-50
2021/08/12 06:29:33;;;;;;;13.25;6.25;;;;;;;;;;4995609;28;20490;-51
2021/08/12 06:31:59;;;;;;;16.33;9.15;;;;;;;;;;4995255;28;20466;-51
2021/08/12 06:34:25;;;;;;;10.43;5.93;;;;;;;;;;4995522;28;20458;-50
2021/08/12 06:36:51;;;;;;;14.55;9.77;;;;;;;;;;4995413;28;20026;-53
2021/08/12 06:39:17;;;;;;;11.93;6.70;;;;;;;;;;4995125;28;20035;-53
2021/08/12 06:41:43;;;;;;;27.65;16.55;;;;;;;;;;4995244;28;20479;-53
2021/08/12 06:44:10;;;;;;;16.08;7.97;;;;;;;;;;4995490;28;20030;-53
2021/08/12 06:46:36;;;;;;;11.00;5.70;;;;;;;;;;4995277;28;20022;-53
2021/08/12 06:49:02;;;;;;;8.00;4.85;;;;;;;;;;4995231;28;20518;-53
2021/08/12 06:51:28;;;;;;;9.35;4.50;;;;;;;;;;4995147;28;20049;-53
2021/08/12 06:53:55;;;;;;;11.02;4.43;;;;;;;;;;4995550;28;20026;-55
2021/08/12 06:56:21;;;;;;;8.23;4.93;;;;;;;;;;4995454;28;20093;-53
2021/08/12 06:58:47;;;;;;;13.25;7.90;;;;;;;;;;4995249;28;20129;-52
2021/08/12 07:01:15;;;;;;;28.13;14.88;;;;;;;;;;4995297;28;20027;-50
2021/08/12 07:03:41;;;;;;;12.98;5.30;;;;;;;;;;4994868;28;20014;-52
2021/08/12 07:06:07;;;;;;;35.53;17.73;;;;;;;;;;4994825;28;20105;-50
2021/08/12 07:08:36;;;;;;;30.25;17.98;;;;;;;;;;4993297;28;20045;-55
2021/08/12 07:11:03;;;;;;;36.25;24.27;;;;;;;;;;4994024;28;20035;-52
2021/08/12 07:13:29;;;;;;;47.42;30.08;;;;;;;;;;4994147;28;20026;-52
2021/08/12 07:15:55;;;;;;;56.42;36.38;;;;;;;;;;4994167;28;20029;-53
2021/08/12 07:18:21;;;;;;;94.93;67.95;;;;;;;;;;4993382;28;20494;-53
2021/08/12 07:20:48;;;;;;;45.20;33.42;;;;;;;;;;4993724;28;20067;-50
2021/08/12 07:23:14;;;;;;;8.20;5.05;;;;;;;;;;4994112;28;20018;-51
2021/08/12 07:25:41;;;;;;;8.45;5.75;;;;;;;;;;4993898;28;20014;-53
2021/08/12 07:28:09;;;;;;;10.45;3.78;;;;;;;;;;4994092;28;20022;-53
2021/08/12 07:30:35;;;;;;;32.83;22.20;;;;;;;;;;4994085;28;20030;-54
2021/08/12 07:33:01;;;;;;;24.17;15.57;;;;;;;;;;4994177;28;20058;-52
2021/08/12 07:35:27;;;;;;;7.15;5.05;;;;;;;;;;4994322;28;20026;-50
2021/08/12 07:37:53;;;;;;;69.75;41.38;;;;;;;;;;4994062;28;20022;-51
2021/08/12 07:40:19;;;;;;;41.33;27.42;;;;;;;;;;4994200;28;20045;-51
2021/08/12 07:42:45;;;;;;;32.03;22.30;;;;;;;;;;4994195;28;20463;-53
2021/08/12 07:45:12;;;;;;;103.60;82.50;;;;;;;;;;4994178;28;20483;-53
2021/08/12 07:47:38;;;;;;;93.35;60.70;;;;;;;;;;4994245;28;20026;-55
2021/08/12 07:50:11;;;;;;;33.38;20.83;;;;;;;;;;4994211;28;20056;-55
2021/08/12 07:52:43;;;;;;;13.23;8.60;;;;;;;;;;4994101;28;20121;-51
2021/08/12 07:55:12;;;;;;;33.30;24.33;;;;;;;;;;4993920;28;20113;-54
2021/08/12 07:57:38;;;;;;;69.93;52.38;;;;;;;;;;4993899;28;20533;-55
2021/08/12 08:00:04;;;;;;;36.55;26.33;;;;;;;;;;4994184;28;20026;-54
2021/08/12 08:02:42;;;;;;;26.83;20.40;;;;;;;;;;4993956;28;20428;-49
2021/08/12 08:05:09;;;;;;;34.47;23.10;;;;;;;;;;4993952;28;20102;-52
2021/08/12 08:07:36;;;;;;;39.85;21.23;;;;;;;;;;4994009;28;20386;-56
2021/08/12 08:10:03;;;;;;;125.97;81.63;;;;;;;;;;4993551;28;20410;-52
2021/08/12 08:12:29;;;;;;;19.20;10.65;;;;;;;;;;4993939;28;20053;-50
2021/08/12 08:14:55;;;;;;;9.38;5.00;;;;;;;;;;4993826;28;20570;-54
2021/08/12 08:17:21;;;;;;;47.03;33.35;;;;;;;;;;4993821;28;20049;-53
2021/08/12 08:19:47;;;;;;;87.35;64.03;;;;;;;;;;4993810;28;20026;-54
2021/08/12 08:22:13;;;;;;;44.20;30.63;;;;;;;;;;4993723;28;20025;-53
2021/08/12 08:24:39;;;;;;;15.65;8.75;;;;;;;;;;4993646;28;20022;-54
2021/08/12 08:27:05;;;;;;;46.63;33.38;;;;;;;;;;4993076;28;20153;-56
2021/08/12 08:29:33;;;;;;;24.95;15.55;;;;;;;;;;4994777;28;20030;-55
2021/08/12 08:31:59;;;;;;;29.60;18.42;;;;;;;;;;4996311;28;20026;-56
2021/08/12 08:34:25;;;;;;;29.58;18.38;;;;;;;;;;4996372;28;20490;-56
2021/08/12 08:36:51;;;;;;;8.93;5.43;;;;;;;;;;4996197;28;20028;-55
2021/08/12 08:39:19;;;;;;;17.17;12.50;;;;;;;;;;4996104;28;20045;-53
2021/08/12 08:41:46;;;;;;;8.48;3.58;;;;;;;;;;4995100;28;20039;-54
2021/08/12 08:44:12;;;;;;;5.65;3.38;;;;;;;;;;4996150;28;20375;-54
2021/08/12 08:46:40;;;;;;;5.78;3.25;;;;;;;;;;4996406;28;20026;-52
2021/08/12 08:49:09;;;;;;;29.27;16.85;;;;;;;;;;4997380;28;20028;-54
2021/08/12 08:51:35;;;;;;;7.43;3.40;;;;;;;;;;4997143;28;20038;-47
2021/08/12 08:54:02;;;;;;;15.63;8.25;;;;;;;;;;4996652;28;20030;-52
2021/08/12 08:56:28;;;;;;;4.97;3.55;;;;;;;;;;4995531;28;20371;-54
2021/08/12 08:58:54;;;;;;;10.88;8.02;;;;;;;;;;4997191;28;20073;-54
2021/08/12 09:01:20;;;;;;;7.18;3.03;;;;;;;;;;4997127;28;20109;-53
2021/08/12 09:03:46;;;;;;;30.10;20.88;;;;;;;;;;4997092;28;20022;-55
2021/08/12 09:06:13;;;;;;;11.98;7.90;;;;;;;;;;4997119;28;20034;-52
2021/08/12 09:08:39;;;;;;;6.63;4.00;;;;;;;;;;4996561;28;20108;-53
2021/08/12 09:11:06;;;;;;;8.88;6.28;;;;;;;;;;4996997;28;20062;-60
2021/08/12 09:13:32;;;;;;;9.95;6.15;;;;;;;;;;4996476;28;20030;-59
2021/08/12 09:15:58;;;;;;;5.93;3.35;;;;;;;;;;4996056;28;20027;-54
2021/08/12 09:18:25;;;;;;;9.80;5.60;;;;;;;;;;4995910;28;20034;-56
2021/08/12 09:20:53;;;;;;;183.35;153.88;;;;;;;;;;4996247;28;20035;-58
2021/08/12 09:23:37;;;;;;;28.88;23.35;;;;;;;;;;4996205;28;20497;-57
2021/08/12 09:26:18;;;;;;;12.07;6.80;;;;;;;;;;4994644;28;20372;-55
2021/08/12 09:28:44;;;;;;;6.47;4.03;;;;;;;;;;4995809;28;20038;-50
2021/08/12 09:31:13;;;;;;;32.78;26.80;;;;;;;;;;4996091;28;20026;-55
2021/08/12 09:33:39;;;;;;;11.00;9.05;;;;;;;;;;4994436;28;20034;-55
2021/08/12 09:36:19;;;;;;;15.32;12.27;;;;;;;;;;4996463;28;20023;-57
2021/08/12 09:38:45;;;;;;;;;;;;;;;;;;4994016;28;20074;-59
2021/08/12 09:41:11;;;;;;;39.92;30.65;;;;;;;;;;4995761;28;20275;-51
2021/08/12 09:43:37;;;;;;;8.23;5.78;;;;;;;;;;4996373;28;20030;-58
2021/08/12 09:46:06;;;;;;;4.72;3.40;;;;;;;;;;4996302;28;20033;-56
2021/08/12 09:48:32;;;;;;;10.23;6.72;;;;;;;;;;4995829;28;20033;-60
2021/08/12 09:51:03;;;;;;;24.88;17.73;;;;;;;;;;4995466;28;20027;-58
2021/08/12 09:53:29;;;;;;;22.85;16.67;;;;;;;;;;4995512;28;20030;-60
2021/08/12 09:55:56;;;;;;;116.88;95.90;;;;;;;;;;4995688;28;20018;-55
2021/08/12 09:58:22;;;;;;;13.15;10.13;;;;;;;;;;4995597;28;20026;-55
2021/08/12 10:00:51;;;;;;;27.25;21.77;;;;;;;;;;4995579;28;20105;-56
2021/08/12 10:03:21;;;;;;;25.88;19.60;;;;;;;;;;4995453;28;20052;-57
2021/08/12 10:05:48;;;;;;;18.35;11.40;;;;;;;;;;4995495;28;20026;-53
2021/08/12 10:08:25;;;;;;;11.73;6.35;;;;;;;;;;4995402;28;20018;-59
2021/08/12 10:10:51;;;;;;;39.80;30.17;;;;;;;;;;4993402;28;20046;-57
2021/08/12 10:13:17;;;;;;;41.75;32.05;;;;;;;;;;4995826;28;20034;-56
2021/08/12 10:15:49;;;;;;;6.97;3.75;;;;;;;;;;4993921;28;20030;-52
2021/08/12 10:18:17;;;;;;;5.93;3.00;;;;;;;;;;4992933;28;20034;-55
2021/08/12 10:20:44;;;;;;;5.13;3.40;;;;;;;;;;4995382;28;20415;-56
2021/08/12 10:23:10;;;;;;;17.40;13.48;;;;;;;;;;4994938;28;20018;-52
2021/08/12 10:25:37;;;;;;;13.00;8.82;;;;;;;;;;4995508;28;20051;-52
2021/08/12 10:28:05;;;;;;;27.92;18.92;;;;;;;;;;4995160;28;20019;-56
2021/08/12 10:30:31;;;;;;;7.40;3.35;;;;;;;;;;4994920;28;20026;-55
2021/08/12 10:32:58;;;;;;;4.10;3.20;;;;;;;;;;4995183;28;20034;-55
2021/08/12 10:35:26;;;;;;;6.50;3.55;;;;;;;;;;4995028;28;20014;-54
2021/08/12 10:37:54;;;;;;;4.82;3.40;;;;;;;;;;4994711;28;20415;-51
2021/08/12 10:40:25;;;;;;;5.47;3.05;;;;;;;;;;4994740;28;20034;-52
2021/08/12 10:42:52;;;;;;;25.20;18.70;;;;;;;;;;4994777;28;20025;-51
2021/08/12 10:45:19;;;;;;;20.08;9.02;;;;;;;;;;4994898;28;20623;-51
2021/08/12 10:47:55;;;;;;;33.05;20.15;;;;;;;;;;4994723;28;20027;-48
2021/08/12 10:50:38;;;;;;;26.17;20.20;;;;;;;;;;4993622;28;20034;-46
2021/08/12 10:53:05;;;;;;;13.45;11.30;;;;;;;;;;4992700;28;20022;-47
2021/08/12 10:55:32;;;;;;;47.35;21.48;;;;;;;;;;4992050;28;20033;-47
2021/08/12 10:58:17;;;;;;;19.10;10.85;;;;;;;;;;4994404;28;20109;-49
2021/08/12 11:00:46;;;;;;;19.85;7.20;;;;;;;;;;4975566;28;20034;-51
2021/08/12 11:03:12;;;;;;;34.42;9.93;;;;;;;;;;4975647;28;20369;-50
2021/08/12 11:05:58;;;;;;;25.90;8.50;;;;;;;;;;4974287;28;20058;-50
2021/08/12 11:08:43;;;;;;;11.45;4.75;;;;;;;;;;4968023;28;20066;-50
2021/08/12 11:11:09;;;;;;;6.53;3.72;;;;;;;;;;4975673;28;20027;-50
2021/08/12 11:13:38;;;;;;;8.20;3.78;;;;;;;;;;4975435;28;20019;-51
2021/08/12 11:16:04;;;;;;;6.93;3.25;;;;;;;;;;4975267;28;20023;-50
2021/08/12 11:18:42;;;;;;;4.28;2.97;;;;;;;;;;4975282;28;20074;-50
2021/08/12 11:21:27;;;;;;;5.88;3.03;;;;;;;;;;4975189;28;20066;-50
2021/08/12 11:23:53;;;;;;;4.82;3.28;;;;;;;;;;4975023;28;20027;-51
2021/08/12 11:26:19;;;;;;;4.22;2.90;;;;;;;;;;4974078;28;20038;-50
2021/08/12 11:28:45;;;;;;;6.18;3.15;;;;;;;;;;4975162;28;20085;-50
2021/08/12 11:31:18;;;;;;;5.35;2.90;;;;;;;;;;4975190;28;20026;-51
2021/08/12 11:33:45;;;;;;;3.50;2.85;;;;;;;;;;4973823;28;20113;-50
2021/08/12 11:36:17;;;;;;;5.93;3.22;;;;;;;;;;4975246;28;20035;-50
2021/08/12 11:38:49;;;;;;;5.07;3.30;;;;;;;;;;4974766;28;20487;-50
2021/08/12 11:41:15;;;;;;;4.75;3.20;;;;;;;;;;4974939;28;20034;-50
2021/08/12 11:43:44;;;;;;;3.55;3.10;;;;;;;;;;4975016;28;20482;-50
2021/08/12 11:46:12;;;;;;;5.28;3.08;;;;;;;;;;4974742;28;20019;-50
2021/08/12 11:48:38;;;;;;;3.08;2.78;;;;;;;;;;4974708;28;20521;-50
2021/08/12 11:51:05;;;;;;;14.57;3.10;;;;;;;;;;4974775;28;20026;-50
2021/08/12 11:53:38;;;;;;;6.55;3.35;;;;;;;;;;4974877;28;20470;-50
2021/08/12 11:56:15;;;;;;;4.15;2.80;;;;;;;;;;4974750;28;20042;-50
2021/08/12 11:58:44;;;;;;;5.95;3.20;;;;;;;;;;4974726;28;20042;-51
2021/08/12 12:01:12;;;;;;;5.90;2.80;;;;;;;;;;4975174;28;20031;-50
2021/08/12 12:03:38;;;;;;;6.20;3.17;;;;;;;;;;4974198;28;20093;-50
2021/08/12 12:06:04;;;;;;;3.55;2.85;;;;;;;;;;4974939;28;20463;-50
2021/08/12 12:08:30;;;;;;;4.72;3.10;;;;;;;;;;4974139;28;20042;-50
2021/08/12 12:11:06;;;;;;;4.85;2.83;;;;;;;;;;4974687;28;20058;-50
2021/08/12 12:13:32;;;;;;;5.65;3.30;;;;;;;;;;4974425;28;20027;-51
2021/08/12 12:15:59;;;;;;;3.92;3.00;;;;;;;;;;4974558;28;20041;-50
2021/08/12 12:18:34;;;;;;;5.03;3.05;;;;;;;;;;4974609;28;20352;-51
2021/08/12 12:21:19;;;;;;;4.18;3.03;;;;;;;;;;4974308;28;20124;-51
2021/08/12 12:23:47;;;;;;;6.82;3.35;;;;;;;;;;4974907;28;20034;-51
2021/08/12 12:26:24;;;;;;;4.85;3.08;;;;;;;;;;4974477;28;20082;-51
2021/08/12 12:28:50;;;;;;;5.63;3.50;;;;;;;;;;4974468;28;20102;-51
2021/08/12 12:31:21;;;;;;;7.47;2.80;;;;;;;;;;4974331;28;20023;-51
2021/08/12 12:34:01;;;;;;;4.20;3.30;;;;;;;;;;4974366;28;20038;-50
2021/08/12 12:36:28;;;;;;;6.13;3.10;;;;;;;;;;4974217;28;20030;-51
2021/08/12 12:38:54;;;;;;;6.80;3.13;;;;;;;;;;4974026;28;20038;-50
2021/08/12 12:41:23;;;;;;;5.25;3.10;;;;;;;;;;4974286;28;20033;-51
2021/08/12 12:43:49;;;;;;;3.75;3.08;;;;;;;;;;4974348;28;20027;-51
2021/08/12 12:46:35;;;;;;;3.40;2.70;;;;;;;;;;4974379;28;20015;-51
2021/08/12 12:49:24;;;;;;;3.63;2.92;;;;;;;;;;4974096;28;20085;-53
2021/08/12 12:51:50;;;;;;;7.53;3.00;;;;;;;;;;4974074;28;20038;-50
2021/08/12 12:54:16;;;;;;;5.78;3.25;;;;;;;;;;4973989;28;20030;-49
2021/08/12 12:56:43;;;;;;;6.47;3.42;;;;;;;;;;4973948;28;20023;-51
2021/08/12 12:59:13;;;;;;;7.13;3.65;;;;;;;;;;4989456;28;20038;-51
2021/08/12 13:01:39;;;;;;;5.10;3.37;;;;;;;;;;4992515;28;20687;-51
2021/08/12 13:04:05;;;;;;;3.67;2.90;;;;;;;;;;4992404;28;20026;-52
2021/08/12 13:06:38;;;;;;;5.05;2.97;;;;;;;;;;4992740;28;20026;-53
2021/08/12 13:09:07;;;;;;;7.82;4.80;;;;;;;;;;4992366;28;20113;-52
2021/08/12 13:11:34;;;;;;;5.00;4.05;;;;;;;;;;4992703;28;20101;-49
2021/08/12 13:14:10;;;;;;;5.18;2.78;;;;;;;;;;4992912;28;20054;-53
2021/08/12 13:16:42;;;;;;;4.13;2.55;;;;;;;;;;4992634;28;20407;-52
2021/08/12 13:19:24;;;;;;;6.20;3.67;;;;;;;;;;4996299;28;20037;-52
2021/08/12 13:21:51;;;;;;;4.85;3.63;;;;;;;;;;4995651;28;20065;-52
2021/08/12 13:24:20;;;;;;;6.30;3.08;;;;;;;;;;4996489;28;20371;-54
2021/08/12 13:26:47;;;;;;;3.70;2.97;;;;;;;;;;4996081;28;20097;-52
2021/08/12 13:29:18;;;;;;;4.00;3.10;;;;;;;;;;4995981;28;20026;-51
2021/08/12 13:31:45;;;;;;;6.30;4.68;;;;;;;;;;4996059;28;20019;-51
2021/08/12 13:34:12;;;;;;;5.10;3.10;;;;;;;;;;4995790;28;20034;-52
2021/08/12 13:36:38;;;;;;;5.63;3.70;;;;;;;;;;4996475;28;20031;-51
2021/08/12 13:39:05;;;;;;;5.80;4.15;;;;;;;;;;4996048;28;20053;-54
2021/08/12 13:41:31;;;;;;;5.82;3.55;;;;;;;;;;4996402;28;20036;-53
2021/08/12 13:43:58;;;;;;;7.25;5.47;;;;;;;;;;4996311;28;20038;-52
2021/08/12 13:46:24;;;;;;;4.28;3.45;;;;;;;;;;4996320;28;20379;-52
2021/08/12 13:48:50;;;;;;;7.50;3.88;;;;;;;;;;4996263;28;20085;-51
2021/08/12 13:51:17;;;;;;;5.18;3.83;;;;;;;;;;4996258;28;20097;-51
2021/08/12 13:53:44;;;;;;;10.30;3.78;;;;;;;;;;4996276;28;20034;-55
2021/08/12 13:56:10;;;;;;;10.23;6.28;;;;;;;;;;4995959;28;20027;-55
2021/08/12 13:58:36;;;;;;;7.05;3.92;;;;;;;;;;4995828;28;20034;-53
2021/08/12 14:01:02;;;;;;;4.78;3.55;;;;;;;;;;4995991;28;20018;-54
2021/08/12 14:03:29;;;;;;;268.60;214.95;;;;;;;;;;4996012;28;20614;-52
2021/08/12 14:05:57;;;;;;;120.03;90.50;;;;;;;;;;4996032;28;20110;-50
2021/08/12 14:08:23;;;;;;;38.13;30.17;;;;;;;;;;4995450;28;20029;-53
2021/08/12 14:10:49;;;;;;;21.55;15.85;;;;;;;;;;4995961;28;20030;-49
2021/08/12 14:13:15;;;;;;;46.10;33.72;;;;;;;;;;4995767;28;20031;-50
2021/08/12 14:15:42;;;;;;;276.35;215.65;;;;;;;;;;4995692;28;20494;-50
2021/08/12 14:18:09;;;;;;;84.35;64.00;;;;;;;;;;4995623;28;20406;-49
2021/08/12 14:20:35;;;;;;;73.43;52.13;;;;;;;;;;4995567;28;20026;-47
2021/08/12 14:23:01;;;;;;;18.05;11.95;;;;;;;;;;4995359;28;20034;-48
2021/08/12 14:25:27;;;;;;;27.17;16.02;;;;;;;;;;4995504;28;20034;-50
2021/08/12 14:27:53;;;;;;;13.32;8.35;;;;;;;;;;4995291;28;20026;-51
2021/08/12 14:30:19;;;;;;;10.43;7.47;;;;;;;;;;4995480;28;20081;-51
2021/08/12 14:32:45;;;;;;;8.73;4.10;;;;;;;;;;4995334;28;20022;-50
2021/08/12 14:35:11;;;;;;;10.70;4.18;;;;;;;;;;4995386;28;20035;-52
2021/08/12 14:37:37;;;;;;;43.90;32.92;;;;;;;;;;4995302;28;20023;-49
2021/08/12 14:40:07;;;;;;;44.88;34.70;;;;;;;;;;4995022;28;20050;-51